sensor_id;sensor_type;location;lat;lon;timestamp;P1;durP1;ratioP1;P2;durP2;ratioP2
20986;SDS011;10652;50.306;8.570;2022-09-09T00:06:09;3.92;;;0.47;;
20986;SDS011;10652;50.306;8.570;2022-09-09T00:23:12;3.47;;;0.80;;
20986;SDS011;10652;50.306;8.570;2022-09-09T00:31:46;2.00;;;0.40;;
20986;SDS011;10652;50.306;8.570;2022-09-09T00:35:49;1.90;;;0.60;;
20986;SDS011;10652;50.306;8.570;2022-09-09T00:39:55;2.63;;;0.50;;
20986;SDS011;10652;50.306;8.570;2022-09-09T00:44:03;1.75;;;0.50;;
20986;SDS011;10652;50.306;8.570;2022-09-09T00:48:12;3.15;;;0.43;;
20986;SDS011;10652;50.306;8.570;2022-09-09T01:01:10;3.72;;;0.82;;
20986;SDS011;10652;50.306;8.570;2022-09-09T01:05:30;2.50;;;0.55;;
20986;SDS011;10652;50.306;8.570;2022-09-09T01:13:47;2.38;;;0.60;;
20986;SDS011;10652;50.306;8.570;2022-09-09T01:18:00;3.38;;;0.45;;
20986;SDS011;10652;50.306;8.570;2022-09-09T01:22:26;2.30;;;0.73;;
20986;SDS011;10652;50.306;8.570;2022-09-09T01:26:42;3.03;;;0.50;;
20986;SDS011;10652;50.306;8.570;2022-09-09T01:30:58;1.63;;;0.60;;
20986;SDS011;10652;50.306;8.570;2022-09-09T01:35:07;2.00;;;0.50;;
20986;SDS011;10652;50.306;8.570;2022-09-09T01:39:14;3.47;;;0.60;;
20986;SDS011;10652;50.306;8.570;2022-09-09T01:43:21;3.17;;;0.70;;
20986;SDS011;10652;50.306;8.570;2022-09-09T01:47:25;2.47;;;0.60;;
20986;SDS011;10652;50.306;8.570;2022-09-09T01:51:52;3.30;;;0.50;;
20986;SDS011;10652;50.306;8.570;2022-09-09T01:56:15;3.45;;;0.82;;
20986;SDS011;10652;50.306;8.570;2022-09-09T02:00:42;2.70;;;0.47;;
20986;SDS011;10652;50.306;8.570;2022-09-09T02:04:56;3.42;;;0.63;;
20986;SDS011;10652;50.306;8.570;2022-09-09T02:09:10;3.70;;;0.80;;
20986;SDS011;10652;50.306;8.570;2022-09-09T02:13:19;1.92;;;0.40;;
20986;SDS011;10652;50.306;8.570;2022-09-09T02:17:27;2.53;;;0.60;;
20986;SDS011;10652;50.306;8.570;2022-09-09T02:21:40;2.90;;;0.50;;
20986;SDS011;10652;50.306;8.570;2022-09-09T02:25:45;0.85;;;0.50;;
20986;SDS011;10652;50.306;8.570;2022-09-09T02:29:54;4.65;;;0.68;;
20986;SDS011;10652;50.306;8.570;2022-09-09T02:34:13;3.90;;;0.70;;
20986;SDS011;10652;50.306;8.570;2022-09-09T02:38:16;1.13;;;0.50;;
20986;SDS011;10652;50.306;8.570;2022-09-09T02:42:40;3.03;;;0.68;;
20986;SDS011;10652;50.306;8.570;2022-09-09T02:55:23;2.05;;;0.60;;
20986;SDS011;10652;50.306;8.570;2022-09-09T02:59:46;2.05;;;0.43;;
20986;SDS011;10652;50.306;8.570;2022-09-09T03:03:50;0.98;;;0.50;;
20986;SDS011;10652;50.306;8.570;2022-09-09T03:07:52;3.15;;;0.63;;
20986;SDS011;10652;50.306;8.570;2022-09-09T03:11:55;2.25;;;0.57;;
20986;SDS011;10652;50.306;8.570;2022-09-09T03:15:58;2.47;;;0.50;;
20986;SDS011;10652;50.306;8.570;2022-09-09T03:20:04;3.47;;;0.55;;
20986;SDS011;10652;50.306;8.570;2022-09-09T03:24:07;2.75;;;0.60;;
20986;SDS011;10652;50.306;8.570;2022-09-09T03:28:09;1.80;;;0.85;;
20986;SDS011;10652;50.306;8.570;2022-09-09T03:32:13;2.55;;;0.77;;
20986;SDS011;10652;50.306;8.570;2022-09-09T03:36:19;1.73;;;0.65;;
20986;SDS011;10652;50.306;8.570;2022-09-09T03:40:22;4.18;;;1.00;;
20986;SDS011;10652;50.306;8.570;2022-09-09T03:44:24;1.73;;;1.00;;
20986;SDS011;10652;50.306;8.570;2022-09-09T03:48:26;3.35;;;0.77;;
20986;SDS011;10652;50.306;8.570;2022-09-09T03:52:30;3.50;;;0.60;;
20986;SDS011;10652;50.306;8.570;2022-09-09T03:56:33;3.72;;;0.75;;
20986;SDS011;10652;50.306;8.570;2022-09-09T04:00:36;2.42;;;0.80;;
20986;SDS011;10652;50.306;8.570;2022-09-09T04:04:41;3.60;;;0.93;;
20986;SDS011;10652;50.306;8.570;2022-09-09T04:08:43;2.30;;;0.70;;
20986;SDS011;10652;50.306;8.570;2022-09-09T04:12:48;3.58;;;0.88;;
20986;SDS011;10652;50.306;8.570;2022-09-09T04:16:50;1.92;;;0.68;;
20986;SDS011;10652;50.306;8.570;2022-09-09T04:20:53;3.67;;;0.93;;
20986;SDS011;10652;50.306;8.570;2022-09-09T04:24:58;9.23;;;0.90;;
20986;SDS011;10652;50.306;8.570;2022-09-09T04:29:03;5.35;;;1.08;;
20986;SDS011;10652;50.306;8.570;2022-09-09T04:33:06;2.60;;;0.93;;
20986;SDS011;10652;50.306;8.570;2022-09-09T04:37:08;3.30;;;0.98;;
20986;SDS011;10652;50.306;8.570;2022-09-09T04:41:12;4.05;;;0.98;;
20986;SDS011;10652;50.306;8.570;2022-09-09T04:45:17;2.05;;;0.70;;
20986;SDS011;10652;50.306;8.570;2022-09-09T04:49:20;2.15;;;1.08;;
20986;SDS011;10652;50.306;8.570;2022-09-09T04:53:22;2.60;;;0.77;;
20986;SDS011;10652;50.306;8.570;2022-09-09T04:57:24;3.15;;;0.90;;
20986;SDS011;10652;50.306;8.570;2022-09-09T05:01:27;5.03;;;0.90;;
20986;SDS011;10652;50.306;8.570;2022-09-09T05:05:35;2.47;;;0.88;;
20986;SDS011;10652;50.306;8.570;2022-09-09T05:09:38;2.47;;;0.82;;
20986;SDS011;10652;50.306;8.570;2022-09-09T05:13:40;5.45;;;1.15;;
20986;SDS011;10652;50.306;8.570;2022-09-09T05:17:42;4.03;;;1.20;;
20986;SDS011;10652;50.306;8.570;2022-09-09T05:21:45;3.50;;;0.90;;
20986;SDS011;10652;50.306;8.570;2022-09-09T05:25:56;1.90;;;0.70;;
20986;SDS011;10652;50.306;8.570;2022-09-09T05:30:00;3.20;;;1.00;;
20986;SDS011;10652;50.306;8.570;2022-09-09T05:34:03;3.20;;;0.90;;
20986;SDS011;10652;50.306;8.570;2022-09-09T05:38:05;3.90;;;0.82;;
20986;SDS011;10652;50.306;8.570;2022-09-09T05:42:07;2.90;;;0.77;;
20986;SDS011;10652;50.306;8.570;2022-09-09T05:46:10;4.80;;;1.15;;
20986;SDS011;10652;50.306;8.570;2022-09-09T05:50:15;2.60;;;0.70;;
20986;SDS011;10652;50.306;8.570;2022-09-09T05:54:18;4.07;;;0.70;;
20986;SDS011;10652;50.306;8.570;2022-09-09T05:58:24;4.32;;;0.98;;
20986;SDS011;10652;50.306;8.570;2022-09-09T06:02:26;3.00;;;0.88;;
20986;SDS011;10652;50.306;8.570;2022-09-09T06:06:33;2.33;;;0.68;;
20986;SDS011;10652;50.306;8.570;2022-09-09T06:10:47;3.33;;;0.80;;
20986;SDS011;10652;50.306;8.570;2022-09-09T06:14:50;2.05;;;0.80;;
20986;SDS011;10652;50.306;8.570;2022-09-09T06:18:54;3.55;;;0.80;;
20986;SDS011;10652;50.306;8.570;2022-09-09T06:22:59;2.63;;;1.00;;
20986;SDS011;10652;50.306;8.570;2022-09-09T06:27:01;4.43;;;0.85;;
20986;SDS011;10652;50.306;8.570;2022-09-09T06:31:08;3.45;;;1.17;;
20986;SDS011;10652;50.306;8.570;2022-09-09T06:35:12;1.90;;;0.85;;
20986;SDS011;10652;50.306;8.570;2022-09-09T06:39:15;3.10;;;1.05;;
20986;SDS011;10652;50.306;8.570;2022-09-09T06:43:19;3.63;;;0.70;;
20986;SDS011;10652;50.306;8.570;2022-09-09T06:47:24;2.17;;;0.77;;
20986;SDS011;10652;50.306;8.570;2022-09-09T06:51:31;2.72;;;0.73;;
20986;SDS011;10652;50.306;8.570;2022-09-09T06:55:37;2.78;;;0.73;;
20986;SDS011;10652;50.306;8.570;2022-09-09T06:59:39;3.97;;;1.08;;
20986;SDS011;10652;50.306;8.570;2022-09-09T07:03:42;2.67;;;0.70;;
20986;SDS011;10652;50.306;8.570;2022-09-09T07:07:46;3.65;;;0.73;;
20986;SDS011;10652;50.306;8.570;2022-09-09T07:11:52;3.58;;;0.68;;
20986;SDS011;10652;50.306;8.570;2022-09-09T07:16:07;3.15;;;0.90;;
20986;SDS011;10652;50.306;8.570;2022-09-09T07:20:11;1.48;;;0.60;;
20986;SDS011;10652;50.306;8.570;2022-09-09T07:24:14;3.72;;;1.10;;
20986;SDS011;10652;50.306;8.570;2022-09-09T07:28:18;2.83;;;1.30;;
20986;SDS011;10652;50.306;8.570;2022-09-09T07:32:21;2.70;;;1.30;;
20986;SDS011;10652;50.306;8.570;2022-09-09T07:36:24;5.88;;;1.30;;
20986;SDS011;10652;50.306;8.570;2022-09-09T07:40:34;4.03;;;1.10;;
20986;SDS011;10652;50.306;8.570;2022-09-09T07:44:38;2.80;;;1.23;;
20986;SDS011;10652;50.306;8.570;2022-09-09T07:48:46;3.15;;;1.25;;
20986;SDS011;10652;50.306;8.570;2022-09-09T07:52:54;4.88;;;1.10;;
20986;SDS011;10652;50.306;8.570;2022-09-09T07:56:59;4.70;;;1.30;;
20986;SDS011;10652;50.306;8.570;2022-09-09T08:01:12;4.32;;;1.00;;
20986;SDS011;10652;50.306;8.570;2022-09-09T08:05:22;4.32;;;1.00;;
20986;SDS011;10652;50.306;8.570;2022-09-09T08:09:25;6.60;;;1.38;;
20986;SDS011;10652;50.306;8.570;2022-09-09T08:13:40;3.55;;;0.70;;
20986;SDS011;10652;50.306;8.570;2022-09-09T08:17:43;2.55;;;1.23;;
20986;SDS011;10652;50.306;8.570;2022-09-09T08:21:45;3.72;;;0.88;;
20986;SDS011;10652;50.306;8.570;2022-09-09T08:25:47;7.90;;;0.90;;
20986;SDS011;10652;50.306;8.570;2022-09-09T08:29:50;2.67;;;0.80;;
20986;SDS011;10652;50.306;8.570;2022-09-09T08:33:53;3.97;;;0.93;;
20986;SDS011;10652;50.306;8.570;2022-09-09T08:37:56;3.22;;;1.00;;
20986;SDS011;10652;50.306;8.570;2022-09-09T08:46:24;2.67;;;0.95;;
20986;SDS011;10652;50.306;8.570;2022-09-09T08:50:35;3.80;;;0.90;;
20986;SDS011;10652;50.306;8.570;2022-09-09T08:54:46;3.55;;;0.93;;
20986;SDS011;10652;50.306;8.570;2022-09-09T08:58:55;5.82;;;1.17;;
20986;SDS011;10652;50.306;8.570;2022-09-09T09:03:15;3.85;;;1.27;;
20986;SDS011;10652;50.306;8.570;2022-09-09T09:07:32;4.78;;;0.90;;
20986;SDS011;10652;50.306;8.570;2022-09-09T09:11:55;4.43;;;1.13;;
20986;SDS011;10652;50.306;8.570;2022-09-09T09:16:12;3.90;;;0.90;;
20986;SDS011;10652;50.306;8.570;2022-09-09T09:20:26;4.15;;;0.90;;
20986;SDS011;10652;50.306;8.570;2022-09-09T09:24:54;4.32;;;1.00;;
20986;SDS011;10652;50.306;8.570;2022-09-09T09:29:17;3.35;;;1.00;;
20986;SDS011;10652;50.306;8.570;2022-09-09T09:37:43;3.30;;;0.82;;
20986;SDS011;10652;50.306;8.570;2022-09-09T09:42:12;3.22;;;0.93;;
20986;SDS011;10652;50.306;8.570;2022-09-09T09:46:21;5.07;;;1.10;;
20986;SDS011;10652;50.306;8.570;2022-09-09T09:54:37;5.10;;;0.90;;
20986;SDS011;10652;50.306;8.570;2022-09-09T10:02:47;5.07;;;0.90;;
20986;SDS011;10652;50.306;8.570;2022-09-09T10:06:55;3.90;;;0.80;;
20986;SDS011;10652;50.306;8.570;2022-09-09T10:11:00;3.83;;;0.90;;
20986;SDS011;10652;50.306;8.570;2022-09-09T10:19:39;3.70;;;0.80;;
20986;SDS011;10652;50.306;8.570;2022-09-09T10:28:33;3.28;;;0.65;;
20986;SDS011;10652;50.306;8.570;2022-09-09T10:32:49;7.78;;;0.80;;
20986;SDS011;10652;50.306;8.570;2022-09-09T10:36:58;4.43;;;0.80;;
20986;SDS011;10652;50.306;8.570;2022-09-09T10:45:32;3.42;;;0.80;;
20986;SDS011;10652;50.306;8.570;2022-09-09T10:58:14;3.00;;;0.60;;
20986;SDS011;10652;50.306;8.570;2022-09-09T11:02:28;1.85;;;0.40;;
20986;SDS011;10652;50.306;8.570;2022-09-09T11:06:34;1.50;;;0.43;;
20986;SDS011;10652;50.306;8.570;2022-09-09T11:10:43;4.25;;;0.60;;
20986;SDS011;10652;50.306;8.570;2022-09-09T11:14:52;2.83;;;0.47;;
20986;SDS011;10652;50.306;8.570;2022-09-09T11:23:17;2.85;;;0.60;;
20986;SDS011;10652;50.306;8.570;2022-09-09T11:27:31;3.65;;;0.63;;
20986;SDS011;10652;50.306;8.570;2022-09-09T11:40:17;1.98;;;0.50;;
20986;SDS011;10652;50.306;8.570;2022-09-09T11:44:27;3.27;;;0.80;;
20986;SDS011;10652;50.306;8.570;2022-09-09T11:48:36;5.05;;;1.02;;
20986;SDS011;10652;50.306;8.570;2022-09-09T11:52:41;2.45;;;0.50;;
20986;SDS011;10652;50.306;8.570;2022-09-09T11:56:47;1.63;;;0.45;;
20986;SDS011;10652;50.306;8.570;2022-09-09T12:00:49;8.98;;;1.00;;
20986;SDS011;10652;50.306;8.570;2022-09-09T12:05:00;2.22;;;0.60;;
20986;SDS011;10652;50.306;8.570;2022-09-09T12:09:29;1.65;;;0.52;;
20986;SDS011;10652;50.306;8.570;2022-09-09T12:13:53;1.77;;;0.47;;
20986;SDS011;10652;50.306;8.570;2022-09-09T12:17:57;2.42;;;0.50;;
20986;SDS011;10652;50.306;8.570;2022-09-09T12:22:11;3.05;;;0.70;;
20986;SDS011;10652;50.306;8.570;2022-09-09T12:34:58;1.20;;;0.32;;
20986;SDS011;10652;50.306;8.570;2022-09-09T12:39:25;2.53;;;0.40;;
20986;SDS011;10652;50.306;8.570;2022-09-09T12:43:35;1.83;;;0.60;;
20986;SDS011;10652;50.306;8.570;2022-09-09T12:51:45;1.73;;;0.50;;
20986;SDS011;10652;50.306;8.570;2022-09-09T12:55:51;1.48;;;0.43;;
20986;SDS011;10652;50.306;8.570;2022-09-09T13:00:15;2.40;;;0.60;;
20986;SDS011;10652;50.306;8.570;2022-09-09T13:04:19;4.40;;;0.70;;
20986;SDS011;10652;50.306;8.570;2022-09-09T13:08:22;5.20;;;0.98;;
20986;SDS011;10652;50.306;8.570;2022-09-09T13:12:24;4.90;;;0.70;;
20986;SDS011;10652;50.306;8.570;2022-09-09T13:16:28;1.80;;;0.50;;
20986;SDS011;10652;50.306;8.570;2022-09-09T13:20:39;2.30;;;0.40;;
20986;SDS011;10652;50.306;8.570;2022-09-09T13:24:57;2.97;;;0.73;;
20986;SDS011;10652;50.306;8.570;2022-09-09T13:29:07;2.17;;;0.60;;
20986;SDS011;10652;50.306;8.570;2022-09-09T13:33:21;3.45;;;0.70;;
20986;SDS011;10652;50.306;8.570;2022-09-09T13:37:32;4.25;;;0.70;;
20986;SDS011;10652;50.306;8.570;2022-09-09T13:41:44;3.42;;;0.63;;
20986;SDS011;10652;50.306;8.570;2022-09-09T13:45:54;3.05;;;0.70;;
20986;SDS011;10652;50.306;8.570;2022-09-09T13:49:58;2.70;;;0.60;;
20986;SDS011;10652;50.306;8.570;2022-09-09T13:54:00;2.33;;;0.50;;
20986;SDS011;10652;50.306;8.570;2022-09-09T13:58:03;4.10;;;0.63;;
20986;SDS011;10652;50.306;8.570;2022-09-09T14:02:07;2.97;;;0.70;;
20986;SDS011;10652;50.306;8.570;2022-09-09T14:06:09;2.55;;;0.22;;
20986;SDS011;10652;50.306;8.570;2022-09-09T14:10:12;3.03;;;0.40;;
20986;SDS011;10652;50.306;8.570;2022-09-09T14:14:14;3.08;;;0.50;;
20986;SDS011;10652;50.306;8.570;2022-09-09T14:18:16;3.65;;;0.63;;
20986;SDS011;10652;50.306;8.570;2022-09-09T14:22:18;2.60;;;0.40;;
20986;SDS011;10652;50.306;8.570;2022-09-09T14:26:21;2.33;;;0.50;;
20986;SDS011;10652;50.306;8.570;2022-09-09T14:30:23;1.38;;;0.38;;
20986;SDS011;10652;50.306;8.570;2022-09-09T14:34:25;1.58;;;0.45;;
20986;SDS011;10652;50.306;8.570;2022-09-09T14:38:31;1.92;;;0.60;;
20986;SDS011;10652;50.306;8.570;2022-09-09T14:42:35;2.58;;;0.57;;
20986;SDS011;10652;50.306;8.570;2022-09-09T14:46:37;1.70;;;0.30;;
20986;SDS011;10652;50.306;8.570;2022-09-09T14:50:39;1.52;;;0.20;;
20986;SDS011;10652;50.306;8.570;2022-09-09T14:54:42;3.05;;;0.40;;
20986;SDS011;10652;50.306;8.570;2022-09-09T14:58:44;2.90;;;0.55;;
20986;SDS011;10652;50.306;8.570;2022-09-09T15:02:48;2.85;;;0.63;;
20986;SDS011;10652;50.306;8.570;2022-09-09T15:06:54;3.13;;;0.40;;
20986;SDS011;10652;50.306;8.570;2022-09-09T15:10:59;2.55;;;0.40;;
20986;SDS011;10652;50.306;8.570;2022-09-09T15:15:02;2.20;;;0.45;;
20986;SDS011;10652;50.306;8.570;2022-09-09T15:19:05;0.90;;;0.25;;
20986;SDS011;10652;50.306;8.570;2022-09-09T15:23:07;1.85;;;0.52;;
20986;SDS011;10652;50.306;8.570;2022-09-09T15:27:10;2.50;;;0.30;;
20986;SDS011;10652;50.306;8.570;2022-09-09T15:31:13;2.80;;;0.45;;
20986;SDS011;10652;50.306;8.570;2022-09-09T15:35:19;1.67;;;0.30;;
20986;SDS011;10652;50.306;8.570;2022-09-09T15:39:21;1.65;;;0.57;;
20986;SDS011;10652;50.306;8.570;2022-09-09T15:43:23;1.13;;;0.28;;
20986;SDS011;10652;50.306;8.570;2022-09-09T15:47:25;2.50;;;0.52;;
20986;SDS011;10652;50.306;8.570;2022-09-09T15:51:28;1.30;;;0.43;;
20986;SDS011;10652;50.306;8.570;2022-09-09T15:55:46;1.95;;;0.50;;
20986;SDS011;10652;50.306;8.570;2022-09-09T15:59:48;2.08;;;0.30;;
20986;SDS011;10652;50.306;8.570;2022-09-09T16:03:50;1.58;;;0.50;;
20986;SDS011;10652;50.306;8.570;2022-09-09T16:07:52;0.98;;;0.30;;
20986;SDS011;10652;50.306;8.570;2022-09-09T16:11:58;1.15;;;0.40;;
20986;SDS011;10652;50.306;8.570;2022-09-09T16:16:03;1.90;;;0.40;;
20986;SDS011;10652;50.306;8.570;2022-09-09T16:20:06;2.38;;;0.43;;
20986;SDS011;10652;50.306;8.570;2022-09-09T16:24:11;2.17;;;0.60;;
20986;SDS011;10652;50.306;8.570;2022-09-09T16:28:15;1.23;;;0.40;;
20986;SDS011;10652;50.306;8.570;2022-09-09T16:32:17;1.70;;;0.40;;
20986;SDS011;10652;50.306;8.570;2022-09-09T16:36:20;2.55;;;0.35;;
20986;SDS011;10652;50.306;8.570;2022-09-09T16:40:23;2.38;;;0.50;;
20986;SDS011;10652;50.306;8.570;2022-09-09T16:44:25;2.80;;;0.60;;
20986;SDS011;10652;50.306;8.570;2022-09-09T16:48:31;4.35;;;0.80;;
20986;SDS011;10652;50.306;8.570;2022-09-09T16:52:34;1.35;;;0.43;;
20986;SDS011;10652;50.306;8.570;2022-09-09T16:56:38;2.33;;;0.43;;
20986;SDS011;10652;50.306;8.570;2022-09-09T17:00:44;1.77;;;0.40;;
20986;SDS011;10652;50.306;8.570;2022-09-09T17:04:48;2.63;;;0.63;;
20986;SDS011;10652;50.306;8.570;2022-09-09T17:08:53;1.83;;;0.30;;
20986;SDS011;10652;50.306;8.570;2022-09-09T17:12:56;1.13;;;0.40;;
20986;SDS011;10652;50.306;8.570;2022-09-09T17:16:58;2.53;;;0.52;;
20986;SDS011;10652;50.306;8.570;2022-09-09T17:21:23;0.90;;;0.30;;
20986;SDS011;10652;50.306;8.570;2022-09-09T17:25:27;0.98;;;0.28;;
20986;SDS011;10652;50.306;8.570;2022-09-09T17:29:29;2.10;;;0.30;;
20986;SDS011;10652;50.306;8.570;2022-09-09T17:33:31;3.83;;;0.40;;
20986;SDS011;10652;50.306;8.570;2022-09-09T17:37:35;3.10;;;0.50;;
20986;SDS011;10652;50.306;8.570;2022-09-09T17:41:38;1.85;;;0.50;;
20986;SDS011;10652;50.306;8.570;2022-09-09T17:45:41;2.00;;;0.35;;
20986;SDS011;10652;50.306;8.570;2022-09-09T17:49:43;2.22;;;0.55;;
20986;SDS011;10652;50.306;8.570;2022-09-09T17:53:46;2.05;;;0.40;;
20986;SDS011;10652;50.306;8.570;2022-09-09T17:57:50;1.95;;;0.25;;
20986;SDS011;10652;50.306;8.570;2022-09-09T18:01:52;1.85;;;0.43;;
20986;SDS011;10652;50.306;8.570;2022-09-09T18:05:59;1.25;;;0.30;;
20986;SDS011;10652;50.306;8.570;2022-09-09T18:10:01;0.80;;;0.30;;
20986;SDS011;10652;50.306;8.570;2022-09-09T18:14:04;0.93;;;0.40;;
20986;SDS011;10652;50.306;8.570;2022-09-09T18:18:06;1.95;;;0.47;;
20986;SDS011;10652;50.306;8.570;2022-09-09T18:22:09;1.63;;;0.35;;
20986;SDS011;10652;50.306;8.570;2022-09-09T18:26:12;1.85;;;0.40;;
20986;SDS011;10652;50.306;8.570;2022-09-09T18:30:15;2.28;;;0.30;;
20986;SDS011;10652;50.306;8.570;2022-09-09T18:34:18;2.28;;;0.30;;
20986;SDS011;10652;50.306;8.570;2022-09-09T18:38:22;1.55;;;0.40;;
20986;SDS011;10652;50.306;8.570;2022-09-09T18:42:26;4.57;;;0.50;;
20986;SDS011;10652;50.306;8.570;2022-09-09T18:46:29;6.15;;;0.57;;
20986;SDS011;10652;50.306;8.570;2022-09-09T18:50:33;1.65;;;0.50;;
20986;SDS011;10652;50.306;8.570;2022-09-09T18:54:35;1.48;;;0.35;;
20986;SDS011;10652;50.306;8.570;2022-09-09T18:58:38;1.65;;;0.60;;
20986;SDS011;10652;50.306;8.570;2022-09-09T19:02:40;2.10;;;0.32;;
20986;SDS011;10652;50.306;8.570;2022-09-09T19:06:44;12.82;;;1.13;;
20986;SDS011;10652;50.306;8.570;2022-09-09T19:10:48;3.20;;;0.47;;
20986;SDS011;10652;50.306;8.570;2022-09-09T19:14:50;0.57;;;0.10;;
20986;SDS011;10652;50.306;8.570;2022-09-09T19:18:52;1.42;;;0.20;;
20986;SDS011;10652;50.306;8.570;2022-09-09T19:22:54;0.43;;;0.10;;
20986;SDS011;10652;50.306;8.570;2022-09-09T19:26:59;0.60;;;0.20;;
20986;SDS011;10652;50.306;8.570;2022-09-09T19:31:07;1.40;;;0.20;;
20986;SDS011;10652;50.306;8.570;2022-09-09T19:35:10;0.65;;;0.10;;
20986;SDS011;10652;50.306;8.570;2022-09-09T19:39:13;0.77;;;0.20;;
20986;SDS011;10652;50.306;8.570;2022-09-09T19:43:15;0.98;;;0.30;;
20986;SDS011;10652;50.306;8.570;2022-09-09T19:47:18;0.82;;;0.20;;
20986;SDS011;10652;50.306;8.570;2022-09-09T19:51:20;1.13;;;0.40;;
20986;SDS011;10652;50.306;8.570;2022-09-09T19:55:23;1.75;;;0.30;;
20986;SDS011;10652;50.306;8.570;2022-09-09T19:59:29;0.73;;;0.20;;
20986;SDS011;10652;50.306;8.570;2022-09-09T20:03:31;1.98;;;0.43;;
20986;SDS011;10652;50.306;8.570;2022-09-09T20:07:34;1.05;;;0.20;;
20986;SDS011;10652;50.306;8.570;2022-09-09T20:11:36;0.47;;;0.20;;
20986;SDS011;10652;50.306;8.570;2022-09-09T20:15:39;0.90;;;0.10;;
20986;SDS011;10652;50.306;8.570;2022-09-09T20:19:41;1.10;;;0.20;;
20986;SDS011;10652;50.306;8.570;2022-09-09T20:23:43;0.82;;;0.10;;
20986;SDS011;10652;50.306;8.570;2022-09-09T20:27:46;1.27;;;0.32;;
20986;SDS011;10652;50.306;8.570;2022-09-09T20:31:48;0.65;;;0.10;;
20986;SDS011;10652;50.306;8.570;2022-09-09T20:35:49;4.78;;;0.40;;
20986;SDS011;10652;50.306;8.570;2022-09-09T20:39:54;2.08;;;0.10;;
20986;SDS011;10652;50.306;8.570;2022-09-09T20:43:58;0.88;;;0.20;;
20986;SDS011;10652;50.306;8.570;2022-09-09T20:48:03;0.88;;;0.20;;
20986;SDS011;10652;50.306;8.570;2022-09-09T20:52:05;1.23;;;0.20;;
20986;SDS011;10652;50.306;8.570;2022-09-09T20:56:07;1.00;;;0.30;;
20986;SDS011;10652;50.306;8.570;2022-09-09T21:00:10;0.80;;;0.28;;
20986;SDS011;10652;50.306;8.570;2022-09-09T21:04:13;1.38;;;0.30;;
20986;SDS011;10652;50.306;8.570;2022-09-09T21:08:17;0.73;;;0.30;;
20986;SDS011;10652;50.306;8.570;2022-09-09T21:12:19;0.60;;;0.20;;
20986;SDS011;10652;50.306;8.570;2022-09-09T21:16:21;0.70;;;0.20;;
20986;SDS011;10652;50.306;8.570;2022-09-09T21:20:23;1.25;;;0.30;;
20986;SDS011;10652;50.306;8.570;2022-09-09T21:24:25;1.55;;;0.35;;
20986;SDS011;10652;50.306;8.570;2022-09-09T21:28:27;4.65;;;0.40;;
20986;SDS011;10652;50.306;8.570;2022-09-09T21:32:29;1.42;;;0.40;;
20986;SDS011;10652;50.306;8.570;2022-09-09T21:36:31;1.90;;;0.47;;
20986;SDS011;10652;50.306;8.570;2022-09-09T21:40:38;1.00;;;0.20;;
20986;SDS011;10652;50.306;8.570;2022-09-09T21:44:40;1.73;;;0.30;;
20986;SDS011;10652;50.306;8.570;2022-09-09T21:48:42;1.38;;;0.45;;
20986;SDS011;10652;50.306;8.570;2022-09-09T21:52:45;1.17;;;0.32;;
20986;SDS011;10652;50.306;8.570;2022-09-09T21:56:50;3.50;;;0.70;;
20986;SDS011;10652;50.306;8.570;2022-09-09T22:00:55;2.80;;;0.40;;
20986;SDS011;10652;50.306;8.570;2022-09-09T22:04:57;2.45;;;0.30;;
20986;SDS011;10652;50.306;8.570;2022-09-09T22:08:59;1.75;;;0.40;;
20986;SDS011;10652;50.306;8.570;2022-09-09T22:13:02;1.75;;;0.40;;
20986;SDS011;10652;50.306;8.570;2022-09-09T22:17:04;3.53;;;0.40;;
20986;SDS011;10652;50.306;8.570;2022-09-09T22:21:16;1.13;;;0.47;;
20986;SDS011;10652;50.306;8.570;2022-09-09T22:25:18;1.23;;;0.52;;
20986;SDS011;10652;50.306;8.570;2022-09-09T22:29:20;1.48;;;0.40;;
20986;SDS011;10652;50.306;8.570;2022-09-09T22:33:23;1.98;;;0.50;;
20986;SDS011;10652;50.306;8.570;2022-09-09T22:37:26;1.88;;;0.70;;
20986;SDS011;10652;50.306;8.570;2022-09-09T22:41:28;1.90;;;0.73;;
20986;SDS011;10652;50.306;8.570;2022-09-09T22:45:30;1.67;;;0.30;;
20986;SDS011;10652;50.306;8.570;2022-09-09T22:49:35;2.63;;;0.50;;
20986;SDS011;10652;50.306;8.570;2022-09-09T22:53:41;3.17;;;0.55;;
20986;SDS011;10652;50.306;8.570;2022-09-09T22:57:45;1.67;;;0.52;;
20986;SDS011;10652;50.306;8.570;2022-09-09T23:01:47;2.67;;;0.77;;
20986;SDS011;10652;50.306;8.570;2022-09-09T23:05:53;2.22;;;0.60;;
20986;SDS011;10652;50.306;8.570;2022-09-09T23:10:00;1.77;;;0.60;;
20986;SDS011;10652;50.306;8.570;2022-09-09T23:14:03;1.23;;;0.65;;
20986;SDS011;10652;50.306;8.570;2022-09-09T23:18:07;2.13;;;0.70;;
20986;SDS011;10652;50.306;8.570;2022-09-09T23:22:09;2.50;;;0.50;;
20986;SDS011;10652;50.306;8.570;2022-09-09T23:26:12;1.63;;;0.50;;
20986;SDS011;10652;50.306;8.570;2022-09-09T23:30:19;2.35;;;0.50;;
20986;SDS011;10652;50.306;8.570;2022-09-09T23:34:22;1.35;;;0.70;;
20986;SDS011;10652;50.306;8.570;2022-09-09T23:38:24;2.03;;;0.40;;
20986;SDS011;10652;50.306;8.570;2022-09-09T23:42:28;1.63;;;0.60;;
20986;SDS011;10652;50.306;8.570;2022-09-09T23:46:34;2.42;;;0.52;;
20986;SDS011;10652;50.306;8.570;2022-09-09T23:50:36;0.70;;;0.30;;
20986;SDS011;10652;50.306;8.570;2022-09-09T23:54:38;2.97;;;0.50;;
20986;SDS011;10652;50.306;8.570;2022-09-09T23:58:40;2.03;;;0.45;;
